sensor_id;sensor_type;location;lat;lon;timestamp;P1;durP1;ratioP1;P2;durP2;ratioP2
75696;SDS011;64312;44.738;20.612;2023-02-15T00:01:39;26.95;;;12.27;;
75696;SDS011;64312;44.738;20.612;2023-02-15T00:04:06;25.25;;;11.85;;
75696;SDS011;64312;44.738;20.612;2023-02-15T00:06:32;26.60;;;12.05;;
75696;SDS011;64312;44.738;20.612;2023-02-15T00:08:58;22.13;;;11.20;;
75696;SDS011;64312;44.738;20.612;2023-02-15T00:11:24;21.50;;;11.20;;
75696;SDS011;64312;44.738;20.612;2023-02-15T00:14:07;25.23;;;12.10;;
75696;SDS011;64312;44.738;20.612;2023-02-15T00:16:38;22.05;;;11.27;;
75696;SDS011;64312;44.738;20.612;2023-02-15T00:19:04;24.88;;;12.45;;
75696;SDS011;64312;44.738;20.612;2023-02-15T00:21:32;24.90;;;11.98;;
75696;SDS011;64312;44.738;20.612;2023-02-15T00:23:59;24.25;;;11.15;;
75696;SDS011;64312;44.738;20.612;2023-02-15T00:26:26;23.25;;;12.27;;
75696;SDS011;64312;44.738;20.612;2023-02-15T00:28:52;23.90;;;11.98;;
75696;SDS011;64312;44.738;20.612;2023-02-15T00:31:18;21.90;;;11.30;;
75696;SDS011;64312;44.738;20.612;2023-02-15T00:33:44;24.80;;;10.95;;
75696;SDS011;64312;44.738;20.612;2023-02-15T00:36:10;21.45;;;11.38;;
75696;SDS011;64312;44.738;20.612;2023-02-15T00:38:36;22.30;;;11.07;;
75696;SDS011;64312;44.738;20.612;2023-02-15T00:41:03;25.00;;;11.75;;
75696;SDS011;64312;44.738;20.612;2023-02-15T00:43:30;20.23;;;10.32;;
75696;SDS011;64312;44.738;20.612;2023-02-15T00:45:58;19.90;;;10.55;;
75696;SDS011;64312;44.738;20.612;2023-02-15T00:48:24;19.92;;;10.57;;
75696;SDS011;64312;44.738;20.612;2023-02-15T00:50:54;19.13;;;9.77;;
75696;SDS011;64312;44.738;20.612;2023-02-15T00:53:22;19.83;;;10.15;;
75696;SDS011;64312;44.738;20.612;2023-02-15T00:55:48;18.33;;;9.20;;
75696;SDS011;64312;44.738;20.612;2023-02-15T00:58:15;20.73;;;10.35;;
75696;SDS011;64312;44.738;20.612;2023-02-15T01:00:42;19.20;;;9.77;;
75696;SDS011;64312;44.738;20.612;2023-02-15T01:03:09;22.08;;;9.75;;
75696;SDS011;64312;44.738;20.612;2023-02-15T01:05:36;19.13;;;8.93;;
75696;SDS011;64312;44.738;20.612;2023-02-15T01:08:02;18.80;;;9.15;;
75696;SDS011;64312;44.738;20.612;2023-02-15T01:10:28;18.73;;;10.05;;
75696;SDS011;64312;44.738;20.612;2023-02-15T01:12:56;18.20;;;10.20;;
75696;SDS011;64312;44.738;20.612;2023-02-15T01:15:23;23.33;;;10.13;;
75696;SDS011;64312;44.738;20.612;2023-02-15T01:17:49;20.73;;;10.18;;
75696;SDS011;64312;44.738;20.612;2023-02-15T01:20:20;18.60;;;9.50;;
75696;SDS011;64312;44.738;20.612;2023-02-15T01:22:48;24.08;;;10.95;;
75696;SDS011;64312;44.738;20.612;2023-02-15T01:25:18;27.10;;;12.23;;
75696;SDS011;64312;44.738;20.612;2023-02-15T01:27:45;35.60;;;16.27;;
75696;SDS011;64312;44.738;20.612;2023-02-15T01:30:12;36.25;;;16.05;;
75696;SDS011;64312;44.738;20.612;2023-02-15T01:32:39;41.33;;;16.88;;
75696;SDS011;64312;44.738;20.612;2023-02-15T01:35:05;35.33;;;16.50;;
75696;SDS011;64312;44.738;20.612;2023-02-15T01:37:32;32.00;;;15.98;;
75696;SDS011;64312;44.738;20.612;2023-02-15T01:39:58;27.52;;;13.75;;
75696;SDS011;64312;44.738;20.612;2023-02-15T01:42:51;27.80;;;12.95;;
75696;SDS011;64312;44.738;20.612;2023-02-15T01:45:20;23.77;;;12.20;;
75696;SDS011;64312;44.738;20.612;2023-02-15T01:50:33;19.67;;;10.23;;
75696;SDS011;64312;44.738;20.612;2023-02-15T01:53:08;19.35;;;9.57;;
75696;SDS011;64312;44.738;20.612;2023-02-15T01:55:42;22.08;;;11.35;;
75696;SDS011;64312;44.738;20.612;2023-02-15T01:58:15;22.90;;;11.32;;
75696;SDS011;64312;44.738;20.612;2023-02-15T02:00:41;24.35;;;12.15;;
75696;SDS011;64312;44.738;20.612;2023-02-15T02:03:08;20.88;;;9.98;;
75696;SDS011;64312;44.738;20.612;2023-02-15T02:05:34;20.75;;;11.82;;
75696;SDS011;64312;44.738;20.612;2023-02-15T02:08:01;20.08;;;10.77;;
75696;SDS011;64312;44.738;20.612;2023-02-15T02:10:28;19.83;;;9.80;;
75696;SDS011;64312;44.738;20.612;2023-02-15T02:12:57;20.13;;;10.63;;
75696;SDS011;64312;44.738;20.612;2023-02-15T02:16:14;18.30;;;10.15;;
75696;SDS011;64312;44.738;20.612;2023-02-15T02:29:08;25.42;;;10.13;;
75696;SDS011;64312;44.738;20.612;2023-02-15T02:32:04;20.30;;;10.82;;
75696;SDS011;64312;44.738;20.612;2023-02-15T02:34:51;24.77;;;10.70;;
75696;SDS011;64312;44.738;20.612;2023-02-15T02:42:34;26.98;;;12.45;;
75696;SDS011;64312;44.738;20.612;2023-02-15T02:47:54;18.92;;;10.13;;
75696;SDS011;64312;44.738;20.612;2023-02-15T02:50:26;18.17;;;9.82;;
75696;SDS011;64312;44.738;20.612;2023-02-15T02:52:55;16.63;;;9.38;;
75696;SDS011;64312;44.738;20.612;2023-02-15T02:55:38;16.33;;;9.27;;
75696;SDS011;64312;44.738;20.612;2023-02-15T03:00:35;18.33;;;8.27;;
75696;SDS011;64312;44.738;20.612;2023-02-15T03:03:27;16.15;;;7.63;;
75696;SDS011;64312;44.738;20.612;2023-02-15T03:05:59;17.33;;;8.35;;
75696;SDS011;64312;44.738;20.612;2023-02-15T03:08:36;17.73;;;8.27;;
75696;SDS011;64312;44.738;20.612;2023-02-15T03:11:08;18.13;;;8.77;;
75696;SDS011;64312;44.738;20.612;2023-02-15T03:13:34;19.50;;;8.88;;
75696;SDS011;64312;44.738;20.612;2023-02-15T03:16:01;17.27;;;9.13;;
75696;SDS011;64312;44.738;20.612;2023-02-15T03:18:48;19.52;;;8.80;;
75696;SDS011;64312;44.738;20.612;2023-02-15T03:21:29;21.63;;;10.70;;
75696;SDS011;64312;44.738;20.612;2023-02-15T03:24:00;21.98;;;9.57;;
75696;SDS011;64312;44.738;20.612;2023-02-15T03:26:49;23.70;;;11.32;;
75696;SDS011;64312;44.738;20.612;2023-02-15T03:29:19;27.25;;;12.23;;
75696;SDS011;64312;44.738;20.612;2023-02-15T03:39:36;25.58;;;12.77;;
75696;SDS011;64312;44.738;20.612;2023-02-15T03:44:58;23.48;;;12.07;;
75696;SDS011;64312;44.738;20.612;2023-02-15T03:47:30;23.23;;;11.50;;
75696;SDS011;64312;44.738;20.612;2023-02-15T03:52:27;23.30;;;11.02;;
75696;SDS011;64312;44.738;20.612;2023-02-15T03:54:56;22.23;;;10.73;;
75696;SDS011;64312;44.738;20.612;2023-02-15T03:57:23;25.42;;;12.40;;
75696;SDS011;64312;44.738;20.612;2023-02-15T04:00:14;27.92;;;13.57;;
75696;SDS011;64312;44.738;20.612;2023-02-15T04:05:51;24.60;;;12.32;;
75696;SDS011;64312;44.738;20.612;2023-02-15T04:08:17;22.92;;;10.75;;
75696;SDS011;64312;44.738;20.612;2023-02-15T04:10:43;22.02;;;11.25;;
75696;SDS011;64312;44.738;20.612;2023-02-15T04:13:21;20.55;;;10.18;;
75696;SDS011;64312;44.738;20.612;2023-02-15T04:15:49;20.38;;;9.85;;
75696;SDS011;64312;44.738;20.612;2023-02-15T04:21:19;23.55;;;11.45;;
75696;SDS011;64312;44.738;20.612;2023-02-15T04:24:04;25.08;;;10.93;;
75696;SDS011;64312;44.738;20.612;2023-02-15T04:26:49;24.20;;;10.98;;
75696;SDS011;64312;44.738;20.612;2023-02-15T04:29:18;23.65;;;13.50;;
75696;SDS011;64312;44.738;20.612;2023-02-15T04:31:45;28.17;;;13.13;;
75696;SDS011;64312;44.738;20.612;2023-02-15T04:34:10;26.98;;;13.13;;
75696;SDS011;64312;44.738;20.612;2023-02-15T04:36:37;32.67;;;14.75;;
75696;SDS011;64312;44.738;20.612;2023-02-15T04:39:03;30.60;;;14.90;;
75696;SDS011;64312;44.738;20.612;2023-02-15T04:41:30;28.08;;;13.60;;
75696;SDS011;64312;44.738;20.612;2023-02-15T04:43:55;27.63;;;13.32;;
75696;SDS011;64312;44.738;20.612;2023-02-15T04:46:21;30.65;;;15.35;;
75696;SDS011;64312;44.738;20.612;2023-02-15T04:48:47;30.95;;;14.73;;
75696;SDS011;64312;44.738;20.612;2023-02-15T04:51:12;32.95;;;15.07;;
75696;SDS011;64312;44.738;20.612;2023-02-15T04:53:38;29.73;;;15.38;;
75696;SDS011;64312;44.738;20.612;2023-02-15T04:56:04;31.17;;;14.40;;
75696;SDS011;64312;44.738;20.612;2023-02-15T04:58:29;25.83;;;13.40;;
75696;SDS011;64312;44.738;20.612;2023-02-15T05:00:55;21.02;;;10.93;;
75696;SDS011;64312;44.738;20.612;2023-02-15T05:03:22;25.60;;;11.93;;
75696;SDS011;64312;44.738;20.612;2023-02-15T05:05:48;24.20;;;11.90;;
75696;SDS011;64312;44.738;20.612;2023-02-15T05:08:13;23.42;;;10.63;;
75696;SDS011;64312;44.738;20.612;2023-02-15T05:10:39;18.88;;;10.73;;
75696;SDS011;64312;44.738;20.612;2023-02-15T05:13:05;23.35;;;10.07;;
75696;SDS011;64312;44.738;20.612;2023-02-15T05:15:31;33.08;;;13.32;;
75696;SDS011;64312;44.738;20.612;2023-02-15T05:17:56;26.13;;;13.43;;
75696;SDS011;64312;44.738;20.612;2023-02-15T05:20:22;31.00;;;13.10;;
75696;SDS011;64312;44.738;20.612;2023-02-15T05:22:50;22.70;;;11.35;;
75696;SDS011;64312;44.738;20.612;2023-02-15T05:25:19;19.55;;;10.80;;
75696;SDS011;64312;44.738;20.612;2023-02-15T05:28:03;19.08;;;9.90;;
75696;SDS011;64312;44.738;20.612;2023-02-15T05:30:48;19.90;;;10.90;;
75696;SDS011;64312;44.738;20.612;2023-02-15T05:33:16;20.08;;;9.02;;
75696;SDS011;64312;44.738;20.612;2023-02-15T05:35:42;16.98;;;8.50;;
75696;SDS011;64312;44.738;20.612;2023-02-15T05:38:08;18.00;;;8.57;;
75696;SDS011;64312;44.738;20.612;2023-02-15T05:40:33;19.30;;;9.20;;
75696;SDS011;64312;44.738;20.612;2023-02-15T05:43:00;15.63;;;8.05;;
75696;SDS011;64312;44.738;20.612;2023-02-15T05:45:25;16.38;;;7.68;;
75696;SDS011;64312;44.738;20.612;2023-02-15T05:47:51;16.10;;;8.00;;
75696;SDS011;64312;44.738;20.612;2023-02-15T05:50:17;16.83;;;8.20;;
75696;SDS011;64312;44.738;20.612;2023-02-15T05:52:43;13.88;;;6.50;;
75696;SDS011;64312;44.738;20.612;2023-02-15T05:55:08;14.65;;;8.02;;
75696;SDS011;64312;44.738;20.612;2023-02-15T05:57:37;17.80;;;7.82;;
75696;SDS011;64312;44.738;20.612;2023-02-15T06:00:03;17.38;;;8.75;;
75696;SDS011;64312;44.738;20.612;2023-02-15T06:02:36;17.27;;;8.93;;
75696;SDS011;64312;44.738;20.612;2023-02-15T06:05:03;19.35;;;8.38;;
75696;SDS011;64312;44.738;20.612;2023-02-15T06:07:30;17.77;;;8.52;;
75696;SDS011;64312;44.738;20.612;2023-02-15T06:09:56;19.98;;;9.35;;
75696;SDS011;64312;44.738;20.612;2023-02-15T06:12:21;19.52;;;10.45;;
75696;SDS011;64312;44.738;20.612;2023-02-15T06:14:47;20.40;;;9.43;;
75696;SDS011;64312;44.738;20.612;2023-02-15T06:17:12;20.83;;;9.45;;
75696;SDS011;64312;44.738;20.612;2023-02-15T06:19:38;20.55;;;9.13;;
75696;SDS011;64312;44.738;20.612;2023-02-15T06:22:04;19.20;;;9.48;;
75696;SDS011;64312;44.738;20.612;2023-02-15T06:24:31;16.15;;;8.27;;
75696;SDS011;64312;44.738;20.612;2023-02-15T06:26:57;17.67;;;8.65;;
75696;SDS011;64312;44.738;20.612;2023-02-15T06:29:23;18.98;;;8.90;;
75696;SDS011;64312;44.738;20.612;2023-02-15T06:31:49;17.60;;;8.23;;
75696;SDS011;64312;44.738;20.612;2023-02-15T06:34:14;18.50;;;8.75;;
75696;SDS011;64312;44.738;20.612;2023-02-15T06:36:40;15.63;;;8.23;;
75696;SDS011;64312;44.738;20.612;2023-02-15T06:39:06;18.27;;;8.57;;
75696;SDS011;64312;44.738;20.612;2023-02-15T06:41:32;19.80;;;9.27;;
75696;SDS011;64312;44.738;20.612;2023-02-15T06:43:58;18.42;;;9.75;;
75696;SDS011;64312;44.738;20.612;2023-02-15T06:46:24;20.77;;;10.93;;
75696;SDS011;64312;44.738;20.612;2023-02-15T06:48:50;18.42;;;9.68;;
75696;SDS011;64312;44.738;20.612;2023-02-15T06:51:15;22.70;;;10.85;;
75696;SDS011;64312;44.738;20.612;2023-02-15T06:53:41;19.40;;;9.70;;
75696;SDS011;64312;44.738;20.612;2023-02-15T06:56:08;20.92;;;11.23;;
75696;SDS011;64312;44.738;20.612;2023-02-15T06:58:35;21.00;;;11.25;;
75696;SDS011;64312;44.738;20.612;2023-02-15T07:01:01;22.33;;;11.43;;
75696;SDS011;64312;44.738;20.612;2023-02-15T07:03:27;20.50;;;10.40;;
75696;SDS011;64312;44.738;20.612;2023-02-15T07:05:56;20.25;;;10.50;;
75696;SDS011;64312;44.738;20.612;2023-02-15T07:08:24;19.73;;;10.32;;
75696;SDS011;64312;44.738;20.612;2023-02-15T07:10:51;22.02;;;11.68;;
75696;SDS011;64312;44.738;20.612;2023-02-15T07:13:18;19.92;;;10.55;;
75696;SDS011;64312;44.738;20.612;2023-02-15T07:15:45;23.38;;;11.10;;
75696;SDS011;64312;44.738;20.612;2023-02-15T07:18:11;17.38;;;10.63;;
75696;SDS011;64312;44.738;20.612;2023-02-15T07:20:37;18.50;;;10.20;;
75696;SDS011;64312;44.738;20.612;2023-02-15T07:23:04;20.50;;;10.93;;
75696;SDS011;64312;44.738;20.612;2023-02-15T07:25:30;21.20;;;11.55;;
75696;SDS011;64312;44.738;20.612;2023-02-15T07:27:59;17.95;;;10.38;;
75696;SDS011;64312;44.738;20.612;2023-02-15T07:30:26;19.60;;;9.73;;
75696;SDS011;64312;44.738;20.612;2023-02-15T07:32:56;23.25;;;11.80;;
75696;SDS011;64312;44.738;20.612;2023-02-15T07:35:48;45.05;;;18.70;;
75696;SDS011;64312;44.738;20.612;2023-02-15T07:38:14;42.35;;;19.00;;
75696;SDS011;64312;44.738;20.612;2023-02-15T07:40:40;41.08;;;19.58;;
75696;SDS011;64312;44.738;20.612;2023-02-15T07:43:06;32.58;;;17.88;;
75696;SDS011;64312;44.738;20.612;2023-02-15T07:45:31;35.55;;;17.00;;
75696;SDS011;64312;44.738;20.612;2023-02-15T07:47:57;34.88;;;16.52;;
75696;SDS011;64312;44.738;20.612;2023-02-15T07:50:23;39.97;;;16.05;;
75696;SDS011;64312;44.738;20.612;2023-02-15T07:52:49;38.75;;;19.08;;
75696;SDS011;64312;44.738;20.612;2023-02-15T07:55:14;35.38;;;16.45;;
75696;SDS011;64312;44.738;20.612;2023-02-15T07:57:43;34.72;;;15.55;;
75696;SDS011;64312;44.738;20.612;2023-02-15T08:00:10;30.95;;;15.95;;
75696;SDS011;64312;44.738;20.612;2023-02-15T08:02:38;30.92;;;15.65;;
75696;SDS011;64312;44.738;20.612;2023-02-15T08:05:04;34.45;;;17.98;;
75696;SDS011;64312;44.738;20.612;2023-02-15T08:07:31;34.35;;;17.13;;
75696;SDS011;64312;44.738;20.612;2023-02-15T08:09:56;28.90;;;13.35;;
75696;SDS011;64312;44.738;20.612;2023-02-15T08:12:22;36.63;;;17.27;;
75696;SDS011;64312;44.738;20.612;2023-02-15T08:14:47;47.53;;;21.92;;
75696;SDS011;64312;44.738;20.612;2023-02-15T08:17:13;41.03;;;20.30;;
75696;SDS011;64312;44.738;20.612;2023-02-15T08:19:39;38.00;;;17.83;;
75696;SDS011;64312;44.738;20.612;2023-02-15T08:22:05;36.10;;;15.05;;
75696;SDS011;64312;44.738;20.612;2023-02-15T08:24:33;30.58;;;14.65;;
75696;SDS011;64312;44.738;20.612;2023-02-15T08:27:02;43.65;;;19.77;;
75696;SDS011;64312;44.738;20.612;2023-02-15T08:29:29;39.03;;;17.27;;
75696;SDS011;64312;44.738;20.612;2023-02-15T08:32:00;32.75;;;15.70;;
75696;SDS011;64312;44.738;20.612;2023-02-15T08:34:29;33.47;;;16.10;;
75696;SDS011;64312;44.738;20.612;2023-02-15T08:36:56;32.60;;;15.68;;
75696;SDS011;64312;44.738;20.612;2023-02-15T08:39:22;33.10;;;15.90;;
75696;SDS011;64312;44.738;20.612;2023-02-15T08:41:48;32.67;;;15.63;;
75696;SDS011;64312;44.738;20.612;2023-02-15T08:44:15;35.50;;;17.77;;
75696;SDS011;64312;44.738;20.612;2023-02-15T08:46:43;36.15;;;17.65;;
75696;SDS011;64312;44.738;20.612;2023-02-15T08:49:12;33.85;;;16.60;;
75696;SDS011;64312;44.738;20.612;2023-02-15T08:51:40;32.35;;;15.20;;
75696;SDS011;64312;44.738;20.612;2023-02-15T08:54:11;33.00;;;15.07;;
75696;SDS011;64312;44.738;20.612;2023-02-15T08:56:39;25.95;;;14.45;;
75696;SDS011;64312;44.738;20.612;2023-02-15T08:59:10;30.55;;;15.38;;
75696;SDS011;64312;44.738;20.612;2023-02-15T09:01:38;28.65;;;15.07;;
75696;SDS011;64312;44.738;20.612;2023-02-15T09:04:05;41.45;;;18.10;;
75696;SDS011;64312;44.738;20.612;2023-02-15T09:06:36;45.38;;;20.17;;
75696;SDS011;64312;44.738;20.612;2023-02-15T09:09:02;38.80;;;18.02;;
75696;SDS011;64312;44.738;20.612;2023-02-15T09:11:30;30.58;;;15.00;;
75696;SDS011;64312;44.738;20.612;2023-02-15T09:14:05;22.65;;;11.63;;
75696;SDS011;64312;44.738;20.612;2023-02-15T09:19:01;22.00;;;10.77;;
75696;SDS011;64312;44.738;20.612;2023-02-15T09:21:30;20.58;;;10.88;;
75696;SDS011;64312;44.738;20.612;2023-02-15T09:24:00;15.90;;;9.50;;
75696;SDS011;64312;44.738;20.612;2023-02-15T09:26:29;16.50;;;8.55;;
75696;SDS011;64312;44.738;20.612;2023-02-15T09:28:56;16.25;;;8.88;;
75696;SDS011;64312;44.738;20.612;2023-02-15T09:31:26;20.20;;;9.35;;
75696;SDS011;64312;44.738;20.612;2023-02-15T09:33:57;20.42;;;11.65;;
75696;SDS011;64312;44.738;20.612;2023-02-15T09:36:33;17.05;;;9.40;;
75696;SDS011;64312;44.738;20.612;2023-02-15T09:41:49;19.20;;;9.65;;
75696;SDS011;64312;44.738;20.612;2023-02-15T09:49:52;16.42;;;9.02;;
75696;SDS011;64312;44.738;20.612;2023-02-15T10:00:47;24.05;;;11.63;;
75696;SDS011;64312;44.738;20.612;2023-02-15T10:28:16;17.55;;;9.07;;
75696;SDS011;64312;44.738;20.612;2023-02-15T10:38:52;17.40;;;8.90;;
75696;SDS011;64312;44.738;20.612;2023-02-15T10:41:33;19.10;;;9.20;;
75696;SDS011;64312;44.738;20.612;2023-02-15T11:06:27;16.40;;;8.30;;
75696;SDS011;64312;44.738;20.612;2023-02-15T11:09:07;15.55;;;8.18;;
75696;SDS011;64312;44.738;20.612;2023-02-15T11:11:37;17.48;;;8.70;;
75696;SDS011;64312;44.738;20.612;2023-02-15T11:16:59;11.25;;;7.20;;
75696;SDS011;64312;44.738;20.612;2023-02-15T11:19:35;14.15;;;7.22;;
75696;SDS011;64312;44.738;20.612;2023-02-15T11:22:06;15.48;;;7.85;;
75696;SDS011;64312;44.738;20.612;2023-02-15T11:24:38;18.63;;;10.45;;
75696;SDS011;64312;44.738;20.612;2023-02-15T11:27:19;17.85;;;8.30;;
75696;SDS011;64312;44.738;20.612;2023-02-15T11:29:50;16.23;;;9.45;;
75696;SDS011;64312;44.738;20.612;2023-02-15T11:32:18;14.68;;;8.45;;
75696;SDS011;64312;44.738;20.612;2023-02-15T11:37:18;13.18;;;7.50;;
75696;SDS011;64312;44.738;20.612;2023-02-15T11:39:50;16.88;;;8.57;;
75696;SDS011;64312;44.738;20.612;2023-02-15T11:47:56;21.30;;;10.65;;
75696;SDS011;64312;44.738;20.612;2023-02-15T11:50:24;14.10;;;8.70;;
75696;SDS011;64312;44.738;20.612;2023-02-15T11:52:52;14.35;;;8.32;;
75696;SDS011;64312;44.738;20.612;2023-02-15T11:55:23;13.02;;;6.78;;
75696;SDS011;64312;44.738;20.612;2023-02-15T11:58:00;11.93;;;7.00;;
75696;SDS011;64312;44.738;20.612;2023-02-15T12:00:35;17.75;;;8.95;;
75696;SDS011;64312;44.738;20.612;2023-02-15T12:03:15;18.92;;;10.65;;
75696;SDS011;64312;44.738;20.612;2023-02-15T12:05:48;17.85;;;9.73;;
75696;SDS011;64312;44.738;20.612;2023-02-15T12:08:19;16.77;;;9.50;;
75696;SDS011;64312;44.738;20.612;2023-02-15T12:13:28;19.75;;;9.75;;
75696;SDS011;64312;44.738;20.612;2023-02-15T12:15:55;17.17;;;8.32;;
75696;SDS011;64312;44.738;20.612;2023-02-15T12:21:03;15.27;;;8.27;;
75696;SDS011;64312;44.738;20.612;2023-02-15T12:28:53;17.83;;;8.93;;
75696;SDS011;64312;44.738;20.612;2023-02-15T12:36:43;17.17;;;8.52;;
75696;SDS011;64312;44.738;20.612;2023-02-15T12:39:17;16.42;;;9.18;;
75696;SDS011;64312;44.738;20.612;2023-02-15T12:41:48;15.60;;;8.77;;
75696;SDS011;64312;44.738;20.612;2023-02-15T12:49:23;23.75;;;11.82;;
75696;SDS011;64312;44.738;20.612;2023-02-15T12:51:50;17.23;;;9.52;;
75696;SDS011;64312;44.738;20.612;2023-02-15T12:59:50;16.45;;;10.05;;
75696;SDS011;64312;44.738;20.612;2023-02-15T13:07:50;22.02;;;10.73;;
75696;SDS011;64312;44.738;20.612;2023-02-15T13:10:54;16.58;;;9.85;;
75696;SDS011;64312;44.738;20.612;2023-02-15T13:13:23;19.48;;;9.68;;
75696;SDS011;64312;44.738;20.612;2023-02-15T13:23:41;25.15;;;12.52;;
75696;SDS011;64312;44.738;20.612;2023-02-15T13:26:14;24.52;;;13.43;;
75696;SDS011;64312;44.738;20.612;2023-02-15T13:28:47;21.92;;;11.05;;
75696;SDS011;64312;44.738;20.612;2023-02-15T13:31:20;22.58;;;12.18;;
75696;SDS011;64312;44.738;20.612;2023-02-15T13:34:23;18.50;;;10.82;;
75696;SDS011;64312;44.738;20.612;2023-02-15T13:55:57;16.00;;;8.25;;
75696;SDS011;64312;44.738;20.612;2023-02-15T13:58:50;13.35;;;7.68;;
75696;SDS011;64312;44.738;20.612;2023-02-15T14:01:39;16.88;;;8.90;;
75696;SDS011;64312;44.738;20.612;2023-02-15T14:06:45;14.95;;;9.10;;
75696;SDS011;64312;44.738;20.612;2023-02-15T14:12:23;12.63;;;7.68;;
75696;SDS011;64312;44.738;20.612;2023-02-15T14:23:42;13.65;;;7.80;;
75696;SDS011;64312;44.738;20.612;2023-02-15T14:26:24;20.42;;;9.55;;
75696;SDS011;64312;44.738;20.612;2023-02-15T14:31:30;13.77;;;8.40;;
75696;SDS011;64312;44.738;20.612;2023-02-15T14:34:03;16.23;;;8.60;;
75696;SDS011;64312;44.738;20.612;2023-02-15T14:36:29;14.38;;;7.88;;
75696;SDS011;64312;44.738;20.612;2023-02-15T14:52:08;17.05;;;9.15;;
75696;SDS011;64312;44.738;20.612;2023-02-15T15:02:15;16.15;;;8.38;;
75696;SDS011;64312;44.738;20.612;2023-02-15T15:04:46;13.50;;;7.70;;
75696;SDS011;64312;44.738;20.612;2023-02-15T15:12:50;10.13;;;6.88;;
75696;SDS011;64312;44.738;20.612;2023-02-15T15:17:54;13.43;;;6.75;;
75696;SDS011;64312;44.738;20.612;2023-02-15T15:25:44;11.93;;;6.38;;
75696;SDS011;64312;44.738;20.612;2023-02-15T15:31:00;10.23;;;6.28;;
75696;SDS011;64312;44.738;20.612;2023-02-15T15:36:24;10.05;;;5.53;;
75696;SDS011;64312;44.738;20.612;2023-02-15T15:39:10;12.38;;;6.03;;
75696;SDS011;64312;44.738;20.612;2023-02-15T15:50:30;10.15;;;6.05;;
75696;SDS011;64312;44.738;20.612;2023-02-15T15:52:57;10.85;;;5.68;;
75696;SDS011;64312;44.738;20.612;2023-02-15T15:55:26;11.63;;;5.85;;
75696;SDS011;64312;44.738;20.612;2023-02-15T15:57:56;11.50;;;6.10;;
75696;SDS011;64312;44.738;20.612;2023-02-15T16:00:38;10.73;;;6.13;;
75696;SDS011;64312;44.738;20.612;2023-02-15T16:03:14;11.60;;;6.45;;
75696;SDS011;64312;44.738;20.612;2023-02-15T16:05:41;12.68;;;6.47;;
75696;SDS011;64312;44.738;20.612;2023-02-15T16:08:07;12.77;;;6.35;;
75696;SDS011;64312;44.738;20.612;2023-02-15T16:10:32;11.15;;;5.88;;
75696;SDS011;64312;44.738;20.612;2023-02-15T16:13:01;13.50;;;6.68;;
75696;SDS011;64312;44.738;20.612;2023-02-15T16:15:34;11.60;;;5.53;;
75696;SDS011;64312;44.738;20.612;2023-02-15T16:18:12;11.45;;;5.75;;
75696;SDS011;64312;44.738;20.612;2023-02-15T16:20:42;11.88;;;5.82;;
75696;SDS011;64312;44.738;20.612;2023-02-15T16:26:09;10.38;;;5.20;;
75696;SDS011;64312;44.738;20.612;2023-02-15T16:28:39;9.10;;;5.05;;
75696;SDS011;64312;44.738;20.612;2023-02-15T16:31:06;8.50;;;5.03;;
75696;SDS011;64312;44.738;20.612;2023-02-15T16:33:37;12.38;;;5.82;;
75696;SDS011;64312;44.738;20.612;2023-02-15T16:36:04;14.73;;;7.35;;
75696;SDS011;64312;44.738;20.612;2023-02-15T16:41:08;23.23;;;10.50;;
75696;SDS011;64312;44.738;20.612;2023-02-15T16:43:36;25.42;;;10.43;;
75696;SDS011;64312;44.738;20.612;2023-02-15T16:46:06;23.90;;;11.07;;
75696;SDS011;64312;44.738;20.612;2023-02-15T16:48:41;26.98;;;12.75;;
75696;SDS011;64312;44.738;20.612;2023-02-15T16:51:10;23.00;;;11.88;;
75696;SDS011;64312;44.738;20.612;2023-02-15T16:53:46;27.65;;;12.55;;
75696;SDS011;64312;44.738;20.612;2023-02-15T16:56:16;26.45;;;12.93;;
75696;SDS011;64312;44.738;20.612;2023-02-15T16:58:50;29.08;;;13.05;;
75696;SDS011;64312;44.738;20.612;2023-02-15T17:01:17;31.10;;;14.70;;
75696;SDS011;64312;44.738;20.612;2023-02-15T17:03:48;28.27;;;13.10;;
75696;SDS011;64312;44.738;20.612;2023-02-15T17:06:25;28.48;;;14.38;;
75696;SDS011;64312;44.738;20.612;2023-02-15T17:08:52;29.90;;;13.57;;
75696;SDS011;64312;44.738;20.612;2023-02-15T17:11:35;30.60;;;14.45;;
75696;SDS011;64312;44.738;20.612;2023-02-15T17:19:04;41.10;;;18.73;;
75696;SDS011;64312;44.738;20.612;2023-02-15T17:21:52;33.00;;;16.58;;
75696;SDS011;64312;44.738;20.612;2023-02-15T17:27:20;32.05;;;14.05;;
75696;SDS011;64312;44.738;20.612;2023-02-15T17:29:56;26.08;;;13.50;;
75696;SDS011;64312;44.738;20.612;2023-02-15T17:32:24;24.10;;;12.55;;
75696;SDS011;64312;44.738;20.612;2023-02-15T17:37:27;24.20;;;11.48;;
75696;SDS011;64312;44.738;20.612;2023-02-15T17:39:53;19.42;;;10.57;;
75696;SDS011;64312;44.738;20.612;2023-02-15T17:42:19;25.67;;;11.18;;
75696;SDS011;64312;44.738;20.612;2023-02-15T17:44:44;27.85;;;12.25;;
75696;SDS011;64312;44.738;20.612;2023-02-15T17:47:15;25.15;;;12.02;;
75696;SDS011;64312;44.738;20.612;2023-02-15T17:49:44;32.78;;;14.02;;
75696;SDS011;64312;44.738;20.612;2023-02-15T17:52:12;33.67;;;14.68;;
75696;SDS011;64312;44.738;20.612;2023-02-15T17:54:39;33.70;;;15.65;;
75696;SDS011;64312;44.738;20.612;2023-02-15T17:57:23;32.40;;;14.48;;
75696;SDS011;64312;44.738;20.612;2023-02-15T17:59:51;29.75;;;14.02;;
75696;SDS011;64312;44.738;20.612;2023-02-15T18:02:38;30.60;;;12.80;;
75696;SDS011;64312;44.738;20.612;2023-02-15T18:05:23;23.48;;;11.48;;
75696;SDS011;64312;44.738;20.612;2023-02-15T18:08:12;29.73;;;12.80;;
75696;SDS011;64312;44.738;20.612;2023-02-15T18:10:58;39.38;;;16.23;;
75696;SDS011;64312;44.738;20.612;2023-02-15T18:13:43;38.97;;;16.67;;
75696;SDS011;64312;44.738;20.612;2023-02-15T18:16:13;38.85;;;17.02;;
75696;SDS011;64312;44.738;20.612;2023-02-15T18:18:41;45.00;;;17.30;;
75696;SDS011;64312;44.738;20.612;2023-02-15T18:21:08;30.50;;;14.85;;
75696;SDS011;64312;44.738;20.612;2023-02-15T18:23:35;35.67;;;16.75;;
75696;SDS011;64312;44.738;20.612;2023-02-15T18:26:01;32.33;;;15.90;;
75696;SDS011;64312;44.738;20.612;2023-02-15T18:28:27;30.58;;;14.98;;
75696;SDS011;64312;44.738;20.612;2023-02-15T18:30:52;29.48;;;14.43;;
75696;SDS011;64312;44.738;20.612;2023-02-15T18:33:28;26.17;;;11.77;;
75696;SDS011;64312;44.738;20.612;2023-02-15T18:36:00;23.15;;;10.35;;
75696;SDS011;64312;44.738;20.612;2023-02-15T18:38:27;19.98;;;10.15;;
75696;SDS011;64312;44.738;20.612;2023-02-15T18:40:54;18.15;;;9.80;;
75696;SDS011;64312;44.738;20.612;2023-02-15T18:43:20;16.20;;;8.80;;
75696;SDS011;64312;44.738;20.612;2023-02-15T18:45:45;20.50;;;9.93;;
75696;SDS011;64312;44.738;20.612;2023-02-15T18:48:11;18.77;;;9.10;;
75696;SDS011;64312;44.738;20.612;2023-02-15T18:50:38;21.00;;;10.60;;
75696;SDS011;64312;44.738;20.612;2023-02-15T18:53:04;23.00;;;10.77;;
75696;SDS011;64312;44.738;20.612;2023-02-15T18:55:32;24.13;;;12.10;;
75696;SDS011;64312;44.738;20.612;2023-02-15T18:57:59;27.48;;;12.98;;
75696;SDS011;64312;44.738;20.612;2023-02-15T19:00:32;27.40;;;12.98;;